Time;durP1;ratioP1;P1;durP2;ratioP2;P2;SDS_P1;SDS_P2;PMS_P1;PMS_P2;Temp;Humidity;BMP_temperature;BMP_pressure;BME280_temperature;BME280_humidity;BME280_pressure;Samples;Min_cycle;Max_cycle;Signal;HPM_P1;HPM_P2
2023/08/09 00:01:17;;;;;;;8.45;5.47;;;14.60;99.90;;;;;;4993278;28;20371;-76
2023/08/09 00:03:43;;;;;;;7.25;4.90;;;14.60;99.90;;;;;;4993036;28;20133;-76
2023/08/09 00:06:09;;;;;;;10.25;5.30;;;14.50;99.90;;;;;;4993207;28;20113;-75
2023/08/09 00:08:34;;;;;;;9.48;6.10;;;14.50;99.90;;;;;;4992512;28;20373;-76
2023/08/09 00:11:00;;;;;;;8.30;5.75;;;14.40;99.90;;;;;;4993101;28;20092;-76
2023/08/09 00:13:26;;;;;;;11.32;5.80;;;14.40;99.90;;;;;;4991361;28;20065;-76
2023/08/09 00:15:52;;;;;;;8.57;4.93;;;14.40;99.90;;;;;;4992495;28;20038;-76
2023/08/09 00:18:18;;;;;;;8.60;5.03;;;14.40;99.90;;;;;;4992900;28;20030;-75
2023/08/09 00:20:44;;;;;;;10.77;4.78;;;14.30;99.90;;;;;;4992093;28;20030;-75
2023/08/09 00:23:10;;;;;;;7.97;5.15;;;14.40;99.90;;;;;;4992695;28;20030;-76
2023/08/09 00:25:38;;;;;;;12.75;5.78;;;14.40;99.90;;;;;;4992339;28;20085;-75
2023/08/09 00:28:04;;;;;;;8.65;4.75;;;14.40;99.90;;;;;;4992274;28;20420;-75
2023/08/09 00:30:30;;;;;;;5.22;3.88;;;14.40;99.90;;;;;;4991981;28;20105;-77
2023/08/09 00:32:56;;;;;;;5.90;3.83;;;14.40;99.90;;;;;;4992467;28;20408;-76
2023/08/09 00:35:22;;;;;;;6.20;3.45;;;14.40;99.90;;;;;;4992578;28;20070;-78
2023/08/09 00:37:48;;;;;;;5.07;3.63;;;14.40;99.90;;;;;;4991777;28;20070;-76
2023/08/09 00:40:13;;;;;;;8.35;3.65;;;14.40;99.90;;;;;;4992602;28;20038;-75
2023/08/09 00:42:40;;;;;;;7.57;3.78;;;14.40;99.90;;;;;;4991823;28;20434;-75
2023/08/09 00:45:07;;;;;;;5.35;3.05;;;14.50;99.90;;;;;;4992640;28;20041;-76
2023/08/09 00:47:34;;;;;;;7.93;3.60;;;14.40;99.90;;;;;;4992516;28;20463;-75
2023/08/09 00:50:01;;;;;;;6.00;3.63;;;14.50;99.90;;;;;;4992731;28;20030;-75
2023/08/09 00:52:27;;;;;;;8.20;3.50;;;14.50;99.90;;;;;;4992882;28;20175;-75
2023/08/09 00:54:54;;;;;;;4.78;3.30;;;14.60;99.90;;;;;;4991591;28;20034;-76
2023/08/09 00:57:20;;;;;;;5.13;3.25;;;14.60;99.90;;;;;;4990727;28;20030;-76
2023/08/09 00:59:46;;;;;;;8.35;3.33;;;14.60;99.90;;;;;;4991360;28;20030;-76
2023/08/09 01:02:11;;;;;;;8.32;3.65;;;14.70;99.90;;;;;;4991507;28;20037;-76
2023/08/09 01:04:38;;;;;;;4.25;2.75;;;14.70;99.90;;;;;;5005731;28;20163;-76
2023/08/09 01:07:17;;;;;;;4.32;3.00;;;14.80;99.90;;;;;;4991781;28;20026;-76
2023/08/09 01:10:06;;;;;;;3.25;2.95;;;14.80;99.90;;;;;;5006296;28;20423;-75
2023/08/09 01:12:41;;;;;;;3.08;2.67;;;14.80;99.90;;;;;;4991468;28;20367;-77
2023/08/09 01:15:09;;;;;;;4.25;2.80;;;14.80;99.90;;;;;;4991750;28;20038;-76
2023/08/09 01:17:36;;;;;;;5.10;2.67;;;14.80;99.90;;;;;;4991355;28;20105;-76
2023/08/09 01:20:10;;;;;;;7.80;3.40;;;14.90;99.90;;;;;;4991624;28;20106;-75
2023/08/09 01:22:45;;;;;;;4.28;2.88;;;14.90;99.90;;;;;;4991083;28;20109;-76
2023/08/09 01:25:11;;;;;;;3.88;2.90;;;14.90;99.90;;;;;;4990479;28;20472;-76
2023/08/09 01:27:37;;;;;;;3.65;2.63;;;14.90;99.90;;;;;;4990602;28;20030;-76
2023/08/09 01:30:06;;;;;;;4.05;2.95;;;15.00;99.90;;;;;;4991689;28;20105;-76
2023/08/09 01:32:31;;;;;;;7.22;3.03;;;15.00;99.90;;;;;;4991371;28;20213;-77
2023/08/09 01:34:58;;;;;;;5.70;3.67;;;15.00;99.90;;;;;;4991412;28;20200;-76
2023/08/09 01:37:35;;;;;;;5.47;3.17;;;15.00;99.90;;;;;;4991451;28;20046;-76
2023/08/09 01:40:08;;;;;;;4.47;2.92;;;15.00;99.90;;;;;;4991817;28;20022;-75
2023/08/09 01:42:37;;;;;;;3.20;2.90;;;15.00;99.90;;;;;;4983981;28;20078;-76
2023/08/09 01:45:04;;;;;;;6.45;3.40;;;15.00;99.90;;;;;;4972529;28;20213;-76
2023/08/09 01:47:30;;;;;;;3.20;2.85;;;15.00;99.90;;;;;;4972018;28;20019;-76
2023/08/09 01:49:56;;;;;;;5.13;3.08;;;15.00;99.90;;;;;;4969983;28;20035;-76
2023/08/09 01:52:21;;;;;;;4.45;2.90;;;15.00;99.90;;;;;;4972402;28;20073;-74
2023/08/09 01:54:48;;;;;;;5.28;2.95;;;15.00;99.90;;;;;;4971821;28;20381;-77
2023/08/09 01:57:14;;;;;;;2.97;2.30;;;15.10;99.90;;;;;;4973264;28;20043;-77
2023/08/09 01:59:43;;;;;;;4.80;3.25;;;15.10;99.90;;;;;;4972728;28;20416;-75
2023/08/09 02:02:08;;;;;;;5.25;2.95;;;15.00;99.90;;;;;;4973364;28;20027;-75
2023/08/09 02:04:34;;;;;;;4.25;3.10;;;15.00;99.90;;;;;;4971278;28;20114;-77
2023/08/09 02:07:00;;;;;;;3.88;2.65;;;15.00;99.90;;;;;;4973962;28;20070;-76
2023/08/09 02:09:28;;;;;;;3.53;3.15;;;15.00;99.90;;;;;;4972828;28;20534;-76
2023/08/09 02:11:54;;;;;;;4.75;3.05;;;15.00;99.90;;;;;;4971654;28;20030;-74
2023/08/09 02:14:20;;;;;;;6.07;3.13;;;15.00;99.90;;;;;;4972538;28;20027;-74
2023/08/09 02:16:46;;;;;;;6.15;2.40;;;15.00;99.90;;;;;;4975108;28;20027;-75
2023/08/09 02:19:12;;;;;;;3.47;2.50;;;15.10;99.90;;;;;;4975575;28;20130;-74
2023/08/09 02:21:42;;;;;;;3.10;2.80;;;15.10;99.90;;;;;;4975036;28;20464;-76
2023/08/09 02:24:08;;;;;;;2.83;2.58;;;15.10;99.90;;;;;;4976219;28;20064;-76
2023/08/09 02:26:34;;;;;;;6.53;2.92;;;15.10;99.90;;;;;;4975106;28;20027;-77
2023/08/09 02:29:03;;;;;;;5.25;2.70;;;15.10;99.90;;;;;;4974671;28;20053;-75
2023/08/09 02:31:31;;;;;;;2.72;2.45;;;15.10;99.90;;;;;;4975802;28;20023;-75
2023/08/09 02:33:57;;;;;;;2.78;2.47;;;15.10;99.90;;;;;;4974537;28;20737;-75
2023/08/09 02:36:23;;;;;;;4.80;2.35;;;15.10;99.90;;;;;;4975271;28;20542;-75
2023/08/09 02:38:49;;;;;;;4.90;2.42;;;15.10;99.90;;;;;;4974854;28;20051;-75
2023/08/09 02:41:15;;;;;;;2.70;2.50;;;15.10;99.90;;;;;;4975310;28;20030;-76
2023/08/09 02:43:41;;;;;;;3.80;2.33;;;15.10;99.90;;;;;;4974625;28;20038;-76
2023/08/09 02:46:07;;;;;;;3.10;2.40;;;15.10;99.90;;;;;;4975554;28;20046;-75
2023/08/09 02:48:32;;;;;;;3.92;2.50;;;15.10;99.90;;;;;;4975347;28;20033;-75
2023/08/09 02:50:58;;;;;;;3.72;2.50;;;15.10;99.90;;;;;;4974643;28;20056;-76
2023/08/09 02:53:56;;;;;;;2.70;2.50;;;15.10;99.90;;;;;;4975442;28;20117;-75
2023/08/09 02:56:21;;;;;;;3.35;2.42;;;15.10;99.90;;;;;;4975421;28;20073;-75
2023/08/09 02:58:47;;;;;;;3.38;2.40;;;15.20;99.90;;;;;;4974505;28;20388;-76
2023/08/09 03:01:13;;;;;;;2.90;2.60;;;15.20;99.90;;;;;;4974844;28;20485;-75
2023/08/09 03:03:38;;;;;;;5.30;2.92;;;15.30;99.90;;;;;;4973218;28;20031;-76
2023/08/09 03:06:05;;;;;;;5.38;2.63;;;15.30;99.90;;;;;;4975326;28;20030;-76
2023/08/09 03:08:31;;;;;;;4.63;2.80;;;15.30;99.90;;;;;;4975151;28;20173;-76
2023/08/09 03:10:57;;;;;;;3.00;2.67;;;15.20;99.90;;;;;;4974147;28;20038;-76
2023/08/09 03:13:22;;;;;;;3.25;2.95;;;15.30;99.90;;;;;;4975175;28;20034;-76
2023/08/09 03:15:48;;;;;;;4.30;2.60;;;15.20;99.90;;;;;;4974287;28;20496;-76
2023/08/09 03:18:14;;;;;;;3.20;2.70;;;15.20;99.90;;;;;;4974821;28;20043;-76
2023/08/09 03:20:40;;;;;;;3.20;2.70;;;15.20;99.90;;;;;;4972866;28;20031;-77
2023/08/09 03:23:09;;;;;;;4.65;2.70;;;15.20;99.90;;;;;;4975052;28;20298;-75
2023/08/09 03:25:36;;;;;;;5.63;2.60;;;15.20;99.90;;;;;;4973979;28;20034;-74
2023/08/09 03:28:02;;;;;;;3.60;2.80;;;15.20;99.90;;;;;;4972502;28;20054;-76
2023/08/09 03:30:28;;;;;;;3.08;2.30;;;15.20;99.90;;;;;;4974677;28;20046;-76
2023/08/09 03:32:54;;;;;;;3.53;2.70;;;15.20;99.90;;;;;;4973828;28;20042;-74
2023/08/09 03:35:20;;;;;;;3.25;2.08;;;15.20;99.90;;;;;;4974200;28;20039;-75
2023/08/09 03:37:45;;;;;;;5.38;2.38;;;15.20;99.90;;;;;;4973541;28;20046;-75
2023/08/09 03:40:12;;;;;;;2.85;2.30;;;15.20;99.90;;;;;;4974875;28;20043;-77
2023/08/09 03:42:42;;;;;;;2.95;2.47;;;15.30;99.90;;;;;;4974260;28;20038;-75
2023/08/09 03:45:08;;;;;;;3.15;2.75;;;15.30;99.90;;;;;;4973853;28;20440;-75
2023/08/09 03:47:36;;;;;;;4.75;2.80;;;15.30;99.90;;;;;;4974121;28;20034;-75
2023/08/09 03:50:06;;;;;;;3.10;2.40;;;15.30;99.90;;;;;;4972068;28;20027;-75
2023/08/09 03:52:32;;;;;;;2.92;2.58;;;15.40;99.90;;;;;;4977682;28;20040;-75
2023/08/09 03:54:58;;;;;;;3.13;2.80;;;15.40;99.90;;;;;;4992580;28;20085;-75
2023/08/09 03:57:24;;;;;;;5.32;2.88;;;15.40;99.90;;;;;;4993218;28;20379;-77
2023/08/09 03:59:50;;;;;;;7.40;2.92;;;15.30;99.90;;;;;;4992680;28;20026;-75
2023/08/09 04:02:17;;;;;;;3.97;2.72;;;15.30;99.90;;;;;;4993335;28;20510;-74
2023/08/09 04:04:43;;;;;;;3.75;2.80;;;15.30;99.90;;;;;;4992525;28;20042;-76
2023/08/09 04:07:09;;;;;;;3.47;2.70;;;15.30;99.90;;;;;;4992891;28;20030;-75
2023/08/09 04:09:35;;;;;;;2.65;2.38;;;15.30;99.90;;;;;;4992936;28;20102;-75
2023/08/09 04:12:03;;;;;;;3.05;2.65;;;15.40;99.90;;;;;;4992747;28;20033;-76
2023/08/09 04:14:29;;;;;;;2.97;2.60;;;15.40;99.90;;;;;;4993002;28;20045;-75
2023/08/09 04:16:56;;;;;;;3.17;2.40;;;15.40;99.90;;;;;;4992402;28;20029;-75
2023/08/09 04:19:24;;;;;;;2.80;2.50;;;15.40;99.90;;;;;;4993009;28;20028;-75
2023/08/09 04:21:51;;;;;;;2.97;2.40;;;15.50;99.90;;;;;;4992417;28;20031;-75
2023/08/09 04:24:18;;;;;;;5.72;2.70;;;15.50;99.90;;;;;;4992853;28;20050;-74
2023/08/09 04:26:44;;;;;;;7.05;2.50;;;15.50;99.90;;;;;;4990967;28;20124;-76
2023/08/09 04:29:09;;;;;;;4.95;2.92;;;15.50;99.90;;;;;;4992521;28;20053;-75
2023/08/09 04:31:36;;;;;;;3.58;2.70;;;15.40;99.90;;;;;;4992795;28;20038;-74
2023/08/09 04:34:02;;;;;;;2.92;2.63;;;15.50;99.90;;;;;;4991977;28;20049;-74
2023/08/09 04:36:28;;;;;;;8.13;2.72;;;15.50;99.90;;;;;;4992041;28;20543;-74
2023/08/09 04:38:54;;;;;;;3.22;2.33;;;15.50;99.90;;;;;;4991444;28;20130;-75
2023/08/09 04:41:20;;;;;;;3.30;2.47;;;15.50;99.90;;;;;;4992321;28;20070;-74
2023/08/09 04:43:46;;;;;;;2.42;2.22;;;15.50;99.90;;;;;;4991544;28;20462;-74
2023/08/09 04:46:13;;;;;;;3.00;2.70;;;15.50;99.90;;;;;;4992691;28;20037;-75
2023/08/09 04:48:40;;;;;;;3.53;2.72;;;15.50;99.90;;;;;;4992528;28;20102;-75
2023/08/09 04:51:07;;;;;;;3.88;2.47;;;15.50;99.90;;;;;;4991856;28;20353;-75
2023/08/09 04:53:33;;;;;;;2.50;2.30;;;15.50;99.90;;;;;;4992328;28;20053;-75
2023/08/09 04:55:59;;;;;;;4.35;2.95;;;15.50;99.90;;;;;;4991557;28;20045;-75
2023/08/09 04:58:25;;;;;;;3.70;2.95;;;15.50;99.90;;;;;;4992098;28;20113;-75
2023/08/09 05:00:51;;;;;;;5.57;2.83;;;15.50;99.90;;;;;;4991747;28;20109;-74
2023/08/09 05:03:17;;;;;;;4.03;2.70;;;15.60;99.90;;;;;;4992127;28;20321;-75
2023/08/09 05:05:43;;;;;;;3.78;2.60;;;15.60;99.90;;;;;;4991899;28;20461;-75
2023/08/09 05:08:09;;;;;;;2.28;2.13;;;15.60;99.90;;;;;;4991353;28;20023;-78
2023/08/09 05:10:35;;;;;;;5.90;2.55;;;15.60;99.90;;;;;;4991967;28;20033;-76
2023/08/09 05:13:01;;;;;;;3.33;2.38;;;15.60;99.90;;;;;;4991415;28;20026;-76
2023/08/09 05:15:27;;;;;;;2.83;2.40;;;15.60;99.90;;;;;;4991697;28;20034;-75
2023/08/09 05:17:53;;;;;;;4.07;2.55;;;15.60;99.90;;;;;;4991266;28;20049;-75
2023/08/09 05:20:19;;;;;;;4.65;2.72;;;15.60;99.90;;;;;;4991902;28;20094;-75
2023/08/09 05:22:44;;;;;;;3.08;2.53;;;15.60;99.90;;;;;;5006794;28;20030;-76
2023/08/09 05:25:11;;;;;;;4.63;2.92;;;15.70;99.90;;;;;;4991330;28;20030;-75
2023/08/09 05:27:37;;;;;;;6.22;2.92;;;15.70;99.90;;;;;;4991545;28;20077;-76
2023/08/09 05:30:04;;;;;;;2.20;2.00;;;15.70;99.90;;;;;;4990833;28;20185;-75
2023/08/09 05:32:30;;;;;;;3.10;2.22;;;15.80;99.90;;;;;;4990156;28;20027;-76
2023/08/09 05:34:55;;;;;;;4.40;2.83;;;15.80;99.90;;;;;;4991080;28;20046;-75
2023/08/09 05:37:21;;;;;;;4.55;3.38;;;15.90;99.90;;;;;;4991265;28;20345;-75
2023/08/09 05:39:47;;;;;;;4.78;3.20;;;15.90;99.90;;;;;;4991457;28;20337;-76
2023/08/09 05:42:13;;;;;;;2.83;2.63;;;15.90;99.90;;;;;;4991174;28;20095;-75
2023/08/09 05:44:38;;;;;;;3.95;3.10;;;16.00;99.90;;;;;;4991765;28;20030;-74
2023/08/09 05:47:04;;;;;;;2.63;2.42;;;16.00;99.90;;;;;;4990616;28;20200;-74
2023/08/09 05:49:30;;;;;;;3.13;2.83;;;16.10;99.90;;;;;;4991469;28;20038;-74
2023/08/09 05:51:56;;;;;;;4.30;2.65;;;16.10;99.90;;;;;;4990663;28;20384;-75
2023/08/09 05:54:21;;;;;;;3.88;2.13;;;16.10;99.90;;;;;;4991294;28;20041;-75
2023/08/09 05:56:47;;;;;;;3.45;2.53;;;16.10;99.90;;;;;;4991074;28;20030;-77
2023/08/09 05:59:13;;;;;;;2.90;2.30;;;16.10;99.90;;;;;;5006016;28;20330;-75
2023/08/09 06:01:39;;;;;;;3.45;2.25;;;16.20;99.90;;;;;;4991247;28;20444;-75
2023/08/09 06:04:05;;;;;;;2.40;2.10;;;16.20;99.90;;;;;;4990705;28;20028;-75
2023/08/09 06:06:31;;;;;;;3.70;2.72;;;16.30;99.90;;;;;;4990953;28;20031;-75
2023/08/09 06:08:57;;;;;;;3.95;2.65;;;16.30;99.90;;;;;;4991182;28;20039;-74
2023/08/09 06:11:23;;;;;;;3.95;3.03;;;16.40;99.90;;;;;;4991774;28;20038;-74
2023/08/09 06:13:49;;;;;;;3.42;2.90;;;16.40;99.90;;;;;;4991210;28;20027;-76
2023/08/09 06:16:15;;;;;;;3.42;2.40;;;16.50;99.90;;;;;;4991110;28;20041;-75
2023/08/09 06:18:40;;;;;;;4.32;2.88;;;16.50;99.90;;;;;;4991290;28;20023;-75
2023/08/09 06:21:06;;;;;;;3.22;2.22;;;16.50;99.90;;;;;;4990591;28;20467;-75
2023/08/09 06:23:32;;;;;;;3.58;2.30;;;16.60;99.90;;;;;;4991403;28;20081;-75
2023/08/09 06:25:58;;;;;;;4.88;2.72;;;16.60;99.90;;;;;;4989175;28;20065;-75
2023/08/09 06:28:24;;;;;;;3.08;2.83;;;16.60;99.90;;;;;;4990783;28;20030;-75
2023/08/09 06:30:50;;;;;;;2.53;2.25;;;16.60;99.90;;;;;;4990351;28;20057;-77
2023/08/09 06:33:16;;;;;;;2.45;2.25;;;16.70;99.90;;;;;;4990372;28;20105;-74
2023/08/09 06:35:42;;;;;;;3.10;2.80;;;16.70;99.90;;;;;;4990795;28;20124;-74
2023/08/09 06:38:07;;;;;;;3.42;2.80;;;16.70;99.90;;;;;;4989958;28;20451;-75
2023/08/09 06:40:33;;;;;;;2.33;2.03;;;16.70;99.90;;;;;;4991135;28;20045;-75
2023/08/09 06:42:59;;;;;;;5.35;2.53;;;16.80;99.90;;;;;;4989740;28;20035;-75
2023/08/09 06:45:25;;;;;;;4.95;2.63;;;16.80;99.90;;;;;;4990462;28;20204;-76
2023/08/09 06:47:50;;;;;;;2.92;2.47;;;16.90;99.90;;;;;;4990768;28;20352;-77
2023/08/09 06:50:16;;;;;;;4.82;2.40;;;17.00;99.90;;;;;;5006007;28;20018;-77
2023/08/09 06:52:42;;;;;;;4.43;2.85;;;17.10;99.90;;;;;;5013798;28;20041;-78
2023/08/09 06:55:09;;;;;;;3.05;2.75;;;17.20;99.90;;;;;;5013228;28;20079;-77
2023/08/09 06:57:35;;;;;;;4.15;2.55;;;17.30;99.90;;;;;;5012250;28;20027;-77
2023/08/09 07:00:05;;;;;;;6.22;3.10;;;17.30;99.90;;;;;;5012386;28;20041;-78
2023/08/09 07:02:32;;;;;;;6.55;3.28;;;17.30;99.90;;;;;;5017787;28;20026;-78
2023/08/09 07:05:08;;;;;;;9.57;3.83;;;17.30;99.90;;;;;;5000636;28;20053;-78
2023/08/09 07:07:34;;;;;;;5.93;3.05;;;17.30;99.90;;;;;;4995067;28;20435;-77
2023/08/09 07:09:59;;;;;;;9.60;3.80;;;17.40;99.90;;;;;;4994140;28;20113;-77
2023/08/09 07:12:25;;;;;;;4.75;2.88;;;17.40;99.90;;;;;;4994357;28;20028;-77
2023/08/09 07:14:51;;;;;;;5.10;3.13;;;17.40;99.90;;;;;;4994015;28;20030;-77
2023/08/09 07:17:17;;;;;;;5.65;3.00;;;17.40;99.90;;;;;;4993862;28;20026;-77
2023/08/09 07:19:43;;;;;;;3.42;3.08;;;17.50;99.90;;;;;;4993940;28;20027;-77
2023/08/09 07:22:08;;;;;;;4.45;2.90;;;17.50;99.90;;;;;;4993583;28;20037;-78
2023/08/09 07:24:34;;;;;;;4.65;2.90;;;17.50;99.90;;;;;;4994042;28;20389;-76
2023/08/09 07:27:00;;;;;;;6.05;3.40;;;17.60;99.90;;;;;;4993078;28;20181;-76
2023/08/09 07:29:26;;;;;;;6.00;3.35;;;17.60;99.90;;;;;;4993532;28;20033;-78
2023/08/09 07:31:51;;;;;;;5.65;3.35;;;17.60;99.90;;;;;;4993300;28;20033;-77
2023/08/09 07:34:17;;;;;;;4.88;2.78;;;17.60;99.90;;;;;;4992776;28;20035;-77
2023/08/09 07:36:43;;;;;;;5.22;2.90;;;17.60;99.90;;;;;;4993778;28;20058;-77
2023/08/09 07:39:12;;;;;;;4.55;3.30;;;17.70;99.90;;;;;;4992292;28;20113;-75
2023/08/09 07:41:38;;;;;;;3.65;2.38;;;17.70;99.90;;;;;;4994124;28;20049;-76
2023/08/09 07:44:04;;;;;;;5.28;2.85;;;17.80;99.90;;;;;;4993066;28;20034;-77
2023/08/09 07:46:30;;;;;;;3.85;2.70;;;17.90;99.90;;;;;;4993857;28;20030;-77
2023/08/09 07:48:56;;;;;;;3.05;2.25;;;18.00;99.90;;;;;;4993201;28;20437;-77
2023/08/09 07:51:22;;;;;;;5.82;2.47;;;18.00;99.90;;;;;;5008267;28;20090;-75
2023/08/09 07:53:48;;;;;;;2.47;2.13;;;18.00;99.90;;;;;;4992981;28;20463;-75
2023/08/09 07:56:14;;;;;;;3.28;2.03;;;18.10;99.90;;;;;;4992720;28;20113;-77
2023/08/09 07:58:40;;;;;;;3.70;2.35;;;18.20;99.90;;;;;;4993295;28;20030;-75
2023/08/09 08:01:05;;;;;;;3.08;2.38;;;18.20;99.90;;;;;;4991661;28;20023;-74
2023/08/09 08:03:31;;;;;;;2.10;1.90;;;18.30;99.90;;;;;;4993379;28;20030;-74
2023/08/09 08:05:57;;;;;;;4.25;1.80;;;18.40;99.90;;;;;;4992952;28;20108;-77
2023/08/09 08:08:23;;;;;;;2.72;1.73;;;18.40;99.90;;;;;;4993148;28;20038;-76
2023/08/09 08:10:49;;;;;;;5.95;2.08;;;18.50;99.90;;;;;;4993177;28;20097;-74
2023/08/09 08:13:15;;;;;;;3.35;1.80;;;18.50;99.90;;;;;;4991834;28;20816;-75
2023/08/09 08:15:41;;;;;;;2.60;1.80;;;18.60;99.90;;;;;;4993003;28;20041;-77
2023/08/09 08:18:08;;;;;;;2.03;1.80;;;18.70;99.90;;;;;;4992641;28;20054;-77
2023/08/09 08:20:33;;;;;;;2.60;1.73;;;18.70;99.90;;;;;;4993154;28;20034;-77
2023/08/09 08:22:59;;;;;;;2.97;1.83;;;18.80;99.90;;;;;;4992835;28;20034;-78
2023/08/09 08:25:26;;;;;;;1.70;1.60;;;18.90;99.90;;;;;;4992463;28;20070;-77
2023/08/09 08:27:51;;;;;;;5.47;1.80;;;19.00;99.90;;;;;;4992979;28;20030;-76
2023/08/09 08:30:19;;;;;;;2.33;1.63;;;19.00;99.90;;;;;;4992048;28;20637;-77
2023/08/09 08:32:46;;;;;;;1.75;1.63;;;19.10;99.90;;;;;;4992857;28;20018;-77
2023/08/09 08:35:13;;;;;;;3.78;1.95;;;19.10;99.90;;;;;;4991880;28;20081;-76
2023/08/09 08:37:42;;;;;;;2.95;2.08;;;19.20;99.90;;;;;;4992626;28;20222;-77
2023/08/09 08:40:14;;;;;;;3.22;2.05;;;19.20;99.90;;;;;;4992239;28;20030;-78
2023/08/09 08:42:42;;;;;;;2.25;1.60;;;19.20;99.90;;;;;;4992723;28;20046;-77
2023/08/09 08:45:11;;;;;;;1.88;1.77;;;19.20;99.90;;;;;;4991636;28;20560;-78
2023/08/09 08:47:40;;;;;;;4.68;1.80;;;19.30;99.90;;;;;;4992308;28;20038;-78
2023/08/09 08:50:10;;;;;;;3.28;1.92;;;19.40;99.90;;;;;;4991804;28;20037;-78
2023/08/09 08:52:38;;;;;;;2.90;1.90;;;19.50;99.90;;;;;;4990935;28;20109;-78
2023/08/09 08:55:11;;;;;;;2.70;1.55;;;19.60;99.90;;;;;;4991697;28;20034;-78
2023/08/09 08:57:38;;;;;;;1.85;1.52;;;19.70;99.90;;;;;;4991124;28;20058;-77
2023/08/09 09:00:15;;;;;;;2.90;1.98;;;19.70;99.90;;;;;;4991484;28;20106;-78
2023/08/09 09:02:41;;;;;;;2.17;1.30;;;19.80;99.90;;;;;;4990785;28;20427;-78
2023/08/09 09:05:09;;;;;;;1.25;1.15;;;19.90;99.90;;;;;;4991384;28;20122;-78
2023/08/09 09:07:36;;;;;;;1.48;1.38;;;20.10;99.90;;;;;;4991925;28;20125;-77
2023/08/09 09:10:06;;;;;;;1.42;1.20;;;20.20;99.90;;;;;;4991480;28;20133;-79
2023/08/09 09:12:36;;;;;;;4.90;1.30;;;20.20;99.90;;;;;;4990522;28;20128;-78
2023/08/09 09:15:04;;;;;;;1.85;1.38;;;20.30;99.90;;;;;;4991312;28;20033;-78
2023/08/09 09:17:39;;;;;;;4.90;1.70;;;20.30;99.90;;;;;;4993694;28;20033;-78
2023/08/09 09:20:23;;;;;;;1.33;1.23;;;20.50;99.90;;;;;;4991085;28;20563;-78
2023/08/09 09:22:49;;;;;;;1.52;1.42;;;20.50;99.90;;;;;;4991484;28;20076;-78
2023/08/09 09:25:17;;;;;;;1.85;1.60;;;20.60;99.90;;;;;;4990779;28;20049;-78
2023/08/09 09:27:46;;;;;;;2.72;1.70;;;20.60;99.90;;;;;;4991510;28;20026;-78
2023/08/09 09:30:13;;;;;;;3.22;1.50;;;20.70;99.90;;;;;;4989292;28;20071;-78
2023/08/09 09:32:57;;;;;;;1.40;1.30;;;20.80;99.90;;;;;;4989459;28;20435;-78
2023/08/09 09:35:28;;;;;;;1.50;1.30;;;20.80;99.90;;;;;;4990317;28;20131;-78
2023/08/09 09:37:55;;;;;;;2.97;1.50;;;20.80;99.90;;;;;;4993961;28;20058;-78
2023/08/09 09:40:34;;;;;;;2.88;1.42;;;20.80;99.90;;;;;;4992734;28;20038;-78
2023/08/09 09:43:09;;;;;;;2.35;1.30;;;21.10;99.90;;;;;;4991597;28;20022;-78
2023/08/09 09:45:36;;;;;;;2.90;1.30;;;21.30;99.90;;;;;;4990841;28;20089;-79
2023/08/09 09:48:02;;;;;;;1.27;1.15;;;21.30;99.90;;;;;;4991573;28;20069;-79
2023/08/09 09:50:31;;;;;;;61.60;5.63;;;21.30;99.90;;;;;;4979079;28;20144;-79
2023/08/09 09:52:57;;;;;;;1.85;1.38;;;21.40;99.90;;;;;;4972278;28;20075;-77
2023/08/09 09:55:28;;;;;;;4.32;1.40;;;21.50;99.90;;;;;;4970312;28;20114;-77
2023/08/09 09:57:55;;;;;;;1.30;1.20;;;21.50;99.90;;;;;;4972584;28;20034;-77
2023/08/09 10:00:22;;;;;;;1.20;1.10;;;21.60;99.90;;;;;;4971529;28;20031;-78
2023/08/09 10:02:52;;;;;;;2.08;1.20;;;21.70;99.90;;;;;;4972321;28;20038;-78
2023/08/09 10:05:21;;;;;;;1.30;1.20;;;21.70;99.90;;;;;;4971887;28;20062;-79
2023/08/09 10:07:48;;;;;;;2.63;1.27;;;21.70;99.90;;;;;;4972326;28;20106;-77
2023/08/09 10:10:16;;;;;;;3.53;1.35;;;21.60;99.90;;;;;;4970157;28;20527;-78
2023/08/09 10:12:47;;;;;;;3.90;1.00;;;21.60;99.90;;;;;;4971065;28;20045;-78
2023/08/09 10:15:17;;;;;;;0.77;0.77;;;21.50;99.90;;;;;;4970472;28;20043;-78
2023/08/09 10:17:45;;;;;;;3.20;1.60;;;21.40;99.90;;;;;;4972376;28;20552;-78
2023/08/09 10:20:13;;;;;;;3.10;1.30;;;21.40;99.90;;;;;;4971758;28;20072;-78
2023/08/09 10:22:39;;;;;;;1.08;0.90;;;21.40;99.90;;;;;;4972251;28;20485;-77
2023/08/09 10:25:06;;;;;;;2.63;1.42;;;21.40;99.90;;;;;;4972195;28;20058;-79
2023/08/09 10:28:00;;;;;;;2.22;1.33;;;21.40;99.90;;;;;;4972427;28;20429;-79
2023/08/09 10:30:28;;;;;;;1.65;1.25;;;21.40;99.90;;;;;;4972653;28;20034;-78
2023/08/09 10:32:58;;;;;;;1.20;1.10;;;21.50;99.90;;;;;;4971768;28;20106;-78
2023/08/09 10:35:43;;;;;;;2.83;1.20;;;21.60;99.90;;;;;;4973071;28;20421;-78
2023/08/09 10:38:13;;;;;;;2.65;1.27;;;21.70;99.90;;;;;;4974984;28;20431;-79
2023/08/09 10:40:43;;;;;;;4.25;1.10;;;21.80;99.90;;;;;;4976683;28;20033;-78
2023/08/09 10:43:23;;;;;;;1.98;1.20;;;21.90;99.90;;;;;;4976698;28;20111;-78
2023/08/09 10:45:52;;;;;;;3.22;1.13;;;21.90;99.90;;;;;;4976245;28;20490;-78
2023/08/09 10:48:26;;;;;;;1.58;1.23;;;22.00;99.90;;;;;;4974945;28;20081;-79
2023/08/09 10:51:01;;;;;;;2.20;1.00;;;22.00;99.90;;;;;;4976613;28;20105;-78
2023/08/09 10:53:27;;;;;;;2.25;1.40;;;22.20;99.90;;;;;;4975793;28;20027;-78
2023/08/09 10:55:57;;;;;;;1.38;1.27;;;22.30;99.90;;;;;;4976267;28;20035;-78
2023/08/09 10:58:29;;;;;;;1.85;0.80;;;22.30;99.90;;;;;;4975517;28;20030;-78
2023/08/09 11:00:55;;;;;;;2.20;1.20;;;22.40;99.90;;;;;;4975558;28;20023;-78
2023/08/09 11:03:22;;;;;;;0.73;0.73;;;22.40;99.90;;;;;;4976221;28;20134;-78
2023/08/09 11:05:47;;;;;;;1.60;1.02;;;22.50;99.90;;;;;;4976259;28;20030;-76
2023/08/09 11:08:18;;;;;;;2.70;1.02;;;22.50;99.90;;;;;;4975611;28;20097;-78
2023/08/09 11:10:45;;;;;;;1.35;1.00;;;22.60;99.90;;;;;;4976029;28;20034;-77
2023/08/09 11:13:13;;;;;;;1.75;1.27;;;22.60;99.90;;;;;;4975639;28;20049;-78
2023/08/09 11:15:44;;;;;;;1.58;1.10;;;22.60;99.90;;;;;;4975656;28;20027;-77
2023/08/09 11:18:10;;;;;;;2.83;0.90;;;22.70;99.90;;;;;;4975995;28;20031;-78
2023/08/09 11:20:36;;;;;;;1.65;1.23;;;22.70;99.90;;;;;;4997761;28;20026;-78
2023/08/09 11:23:03;;;;;;;1.00;0.80;;;22.70;99.90;;;;;;4998162;28;20162;-78
2023/08/09 11:25:31;;;;;;;1.23;0.90;;;22.80;99.90;;;;;;4997495;28;20044;-77
2023/08/09 11:28:00;;;;;;;0.73;0.73;;;23.00;99.90;;;;;;4997078;28;20030;-77
2023/08/09 11:30:28;;;;;;;3.20;1.02;;;23.20;99.90;;;;;;4994273;28;20039;-78
2023/08/09 11:32:56;;;;;;;2.38;0.85;;;23.10;99.90;;;;;;4986230;28;20039;-77
2023/08/09 11:35:39;;;;;;;1.33;1.00;;;23.20;99.90;;;;;;4978698;28;20109;-77
2023/08/09 11:38:09;;;;;;;2.90;1.00;;;23.20;99.90;;;;;;4981950;28;20043;-79
2023/08/09 11:40:44;;;;;;;4.28;1.10;;;23.20;99.90;;;;;;4991813;28;20034;-79
2023/08/09 11:43:15;;;;;;;1.77;1.00;;;23.20;99.90;;;;;;4994444;28;20047;-79
2023/08/09 11:45:52;;;;;;;2.22;0.90;;;23.30;99.90;;;;;;5015092;28;20037;-78
2023/08/09 11:48:34;;;;;;;1.65;1.15;;;23.40;99.90;;;;;;5013170;28;20027;-78
2023/08/09 11:51:04;;;;;;;2.22;1.02;;;23.40;99.90;;;;;;5013560;28;20057;-78
2023/08/09 11:53:32;;;;;;;2.22;0.93;;;23.50;99.90;;;;;;5014516;28;20029;-78
2023/08/09 11:56:00;;;;;;;1.60;1.10;;;23.50;99.90;;;;;;4997699;28;20079;-78
2023/08/09 11:58:26;;;;;;;1.27;0.90;;;23.60;99.90;;;;;;4993955;28;20225;-79
2023/08/09 12:00:51;;;;;;;2.85;1.05;;;23.60;99.90;;;;;;4994462;28;20185;-78
2023/08/09 12:03:23;;;;;;;1.67;1.10;;;23.60;99.90;;;;;;4993772;28;20033;-79
2023/08/09 12:05:53;;;;;;;0.77;0.77;;;23.60;99.90;;;;;;4994486;28;20038;-78
2023/08/09 12:08:39;;;;;;;85.60;7.32;;;23.60;99.90;;;;;;4993104;28;20105;-79
2023/08/09 12:11:05;;;;;;;4.25;1.60;;;23.70;99.90;;;;;;4993520;28;20038;-78
2023/08/09 12:13:32;;;;;;;2.33;1.05;;;23.90;99.90;;;;;;4992316;28;20058;-79
2023/08/09 12:15:58;;;;;;;1.33;1.10;;;24.00;99.90;;;;;;4992532;28;20480;-79
2023/08/09 12:18:24;;;;;;;2.42;1.00;;;24.10;99.90;;;;;;4992395;28;20033;-79
2023/08/09 12:20:50;;;;;;;1.10;1.00;;;24.10;99.90;;;;;;4992494;28;20452;-78
2023/08/09 12:23:16;;;;;;;4.32;0.90;;;24.20;99.90;;;;;;4991894;28;20101;-78
2023/08/09 12:25:45;;;;;;;1.92;1.00;;;24.30;99.90;;;;;;4992607;28;20030;-77
2023/08/09 12:28:11;;;;;;;1.27;0.90;;;24.40;99.90;;;;;;4992561;28;20030;-78
2023/08/09 12:30:37;;;;;;;0.95;0.80;;;24.30;99.90;;;;;;4992040;28;20053;-78
2023/08/09 12:33:03;;;;;;;1.58;0.80;;;24.30;99.90;;;;;;4992635;28;20113;-78
2023/08/09 12:35:29;;;;;;;0.90;0.90;;;24.20;99.90;;;;;;4992243;28;20030;-78
2023/08/09 12:37:55;;;;;;;2.15;0.80;;;24.30;99.90;;;;;;4992590;28;20046;-78
2023/08/09 12:40:20;;;;;;;1.83;0.80;;;24.50;99.90;;;;;;4992110;28;20383;-79
2023/08/09 12:42:46;;;;;;;2.03;0.90;;;24.50;99.90;;;;;;5007042;28;20061;-79
2023/08/09 12:45:12;;;;;;;1.02;0.93;;;24.40;99.90;;;;;;4992727;28;20364;-79
2023/08/09 12:47:38;;;;;;;1.95;0.70;;;24.40;99.90;;;;;;4991957;28;20030;-79